createdAt,value
2022-12-16T00:00:21.146Z,22.20
2022-12-16T00:01:21.079Z,25.20
2022-12-16T00:02:21.104Z,25.40
2022-12-16T00:03:21.168Z,25.50
2022-12-16T00:04:21.058Z,24.60
2022-12-16T00:05:21.037Z,24.90
2022-12-16T00:06:21.041Z,24.20
2022-12-16T00:07:21.020Z,24.10
2022-12-16T00:08:21.017Z,23.90
2022-12-16T00:09:20.999Z,24.80
2022-12-16T00:10:20.981Z,23.20
2022-12-16T00:11:20.967Z,24.40
2022-12-16T00:12:20.959Z,23.90
2022-12-16T00:13:20.949Z,23.40
2022-12-16T00:14:20.930Z,23.80
2022-12-16T00:15:20.927Z,25.40
2022-12-16T00:16:20.961Z,26.30
2022-12-16T00:17:20.898Z,25.40
2022-12-16T00:18:20.899Z,26.30
2022-12-16T00:19:20.883Z,25.60
2022-12-16T00:20:20.859Z,25.00
2022-12-16T00:21:20.857Z,25.80
2022-12-16T00:22:20.839Z,25.00
2022-12-16T00:23:20.848Z,24.60
2022-12-16T00:24:20.817Z,24.70
2022-12-16T00:25:20.799Z,25.40
2022-12-16T00:26:20.788Z,24.20
2022-12-16T00:27:20.758Z,25.50
2022-12-16T00:28:20.789Z,26.10
2022-12-16T00:29:20.733Z,26.90
2022-12-16T00:30:20.729Z,23.90
2022-12-16T00:31:20.786Z,25.90
2022-12-16T00:32:20.717Z,26.60
2022-12-16T00:33:20.720Z,26.30
2022-12-16T00:34:20.814Z,26.70
2022-12-16T00:35:20.668Z,26.50
2022-12-16T00:36:20.678Z,25.60
2022-12-16T00:37:20.648Z,26.20
2022-12-16T00:38:20.627Z,25.80
2022-12-16T00:39:20.630Z,25.50
2022-12-16T00:40:20.618Z,26.70
2022-12-16T00:41:20.600Z,27.00
2022-12-16T00:42:20.589Z,27.30
2022-12-16T00:43:20.640Z,26.90
2022-12-16T00:44:20.577Z,28.30
2022-12-16T00:45:20.541Z,28.80
2022-12-16T00:46:20.539Z,28.90
2022-12-16T00:47:20.521Z,28.50
2022-12-16T00:48:20.518Z,27.70
2022-12-16T00:49:20.507Z,27.70
2022-12-16T00:50:20.489Z,25.90
2022-12-16T00:51:20.471Z,27.50
2022-12-16T00:52:20.456Z,28.70
2022-12-16T00:53:20.458Z,26.70
2022-12-16T00:54:20.439Z,26.70
2022-12-16T00:55:20.409Z,27.80
2022-12-16T00:56:20.397Z,30.10
2022-12-16T00:57:20.514Z,29.50
2022-12-16T00:58:20.394Z,30.60
2022-12-16T00:59:20.369Z,31.90
2022-12-16T01:00:20.354Z,30.10
2022-12-16T01:01:20.644Z,34.10
2022-12-16T01:02:20.496Z,32.00
2022-12-16T01:03:22.051Z,32.00
2022-12-16T01:04:20.319Z,32.30
2022-12-16T01:05:20.286Z,32.20
2022-12-16T01:06:20.267Z,35.10
2022-12-16T01:07:20.306Z,34.60
2022-12-16T01:08:20.257Z,32.80
2022-12-16T01:09:20.249Z,35.70
2022-12-16T01:10:20.248Z,30.30
2022-12-16T01:11:20.254Z,31.40
2022-12-16T01:12:20.203Z,30.60
2022-12-16T01:13:20.187Z,29.80
2022-12-16T01:14:20.190Z,30.10
2022-12-16T01:15:20.189Z,29.50
2022-12-16T01:16:20.173Z,30.40
2022-12-16T01:17:27.646Z,27.40
2022-12-16T01:18:20.117Z,30.60
2022-12-16T01:19:28.790Z,30.10
2022-12-16T01:20:20.113Z,29.70
2022-12-16T01:21:27.637Z,31.20
2022-12-16T01:22:20.081Z,33.70
2022-12-16T01:23:20.078Z,33.70
2022-12-16T01:24:20.078Z,34.50
2022-12-16T01:25:20.066Z,33.80
2022-12-16T01:26:20.057Z,34.80
2022-12-16T01:27:20.028Z,34.90
2022-12-16T01:28:20.030Z,30.90
2022-12-16T01:29:19.996Z,30.80
2022-12-16T01:30:20.000Z,32.90
2022-12-16T01:31:19.995Z,34.10
2022-12-16T01:32:19.964Z,34.50
2022-12-16T01:33:19.946Z,31.70
2022-12-16T01:34:19.956Z,32.00
2022-12-16T01:35:51.504Z,32.50
2022-12-16T01:36:20.925Z,33.20
2022-12-16T01:37:19.907Z,34.20
2022-12-16T01:38:19.887Z,31.80
2022-12-16T01:39:19.887Z,33.20
2022-12-16T01:40:19.877Z,31.20
2022-12-16T01:41:19.863Z,31.20
2022-12-16T01:42:19.856Z,31.60
2022-12-16T01:43:19.856Z,31.60
2022-12-16T01:44:19.856Z,33.40
2022-12-16T01:45:19.806Z,32.80
2022-12-16T01:46:19.856Z,32.50
2022-12-16T01:47:19.780Z,32.10
2022-12-16T01:48:19.767Z,31.50
2022-12-16T01:49:19.774Z,30.00
2022-12-16T01:50:19.745Z,31.60
2022-12-16T01:51:19.746Z,33.10
2022-12-16T01:52:19.745Z,32.10
2022-12-16T01:53:19.734Z,32.20
2022-12-16T01:54:19.738Z,31.60
2022-12-16T01:55:19.704Z,30.60
2022-12-16T01:56:19.663Z,30.20
2022-12-16T01:57:19.649Z,31.50
2022-12-16T01:58:19.657Z,31.10
2022-12-16T01:59:19.627Z,30.80
2022-12-16T02:00:19.637Z,31.00
2022-12-16T02:01:19.736Z,32.30
2022-12-16T02:02:19.685Z,30.70
2022-12-16T02:03:19.600Z,30.80
2022-12-16T02:04:19.569Z,32.90
2022-12-16T02:05:19.580Z,30.40
2022-12-16T02:06:19.547Z,30.50
2022-12-16T02:07:19.529Z,30.40
2022-12-16T02:08:19.554Z,31.10
2022-12-16T02:09:19.498Z,31.10
2022-12-16T02:10:19.508Z,31.40
2022-12-16T02:11:19.644Z,31.50
2022-12-16T02:12:19.524Z,33.30
2022-12-16T02:13:19.467Z,30.40
2022-12-16T02:14:19.447Z,29.60
2022-12-16T02:15:19.428Z,30.80
2022-12-16T02:16:19.532Z,30.90
2022-12-16T02:17:19.489Z,30.20
2022-12-16T02:18:19.416Z,31.10
2022-12-16T02:19:19.376Z,31.20
2022-12-16T02:20:19.377Z,32.70
2022-12-16T02:21:19.367Z,33.50
2022-12-16T02:22:19.350Z,33.50
2022-12-16T02:23:19.336Z,34.60
2022-12-16T02:24:19.325Z,34.40
2022-12-16T02:25:19.307Z,35.00
2022-12-16T02:26:19.297Z,33.80
2022-12-16T02:27:19.288Z,34.60
2022-12-16T02:28:19.298Z,33.30
2022-12-16T02:29:19.257Z,33.60
2022-12-16T02:30:19.270Z,34.00
2022-12-16T02:31:19.297Z,32.20
2022-12-16T02:32:19.227Z,34.50
2022-12-16T02:33:19.209Z,34.20
2022-12-16T02:34:19.193Z,32.70
2022-12-16T02:35:19.180Z,32.90
2022-12-16T02:36:19.176Z,31.80
2022-12-16T02:37:19.160Z,33.40
2022-12-16T02:38:19.139Z,32.00
2022-12-16T02:39:19.131Z,30.90
2022-12-16T02:40:19.128Z,32.00
2022-12-16T02:41:19.108Z,31.90
2022-12-16T02:42:19.099Z,30.70
2022-12-16T02:43:19.100Z,30.00
2022-12-16T02:44:19.066Z,31.00
2022-12-16T02:45:19.077Z,31.10
2022-12-16T02:46:19.104Z,31.10
2022-12-16T02:47:19.040Z,31.00
2022-12-16T02:48:19.041Z,33.30
2022-12-16T02:49:19.008Z,30.20
2022-12-16T02:50:19.009Z,29.30
2022-12-16T02:51:18.977Z,29.80
2022-12-16T02:52:18.970Z,31.40
2022-12-16T02:53:18.978Z,29.80
2022-12-16T02:54:18.975Z,30.70
2022-12-16T02:55:18.938Z,30.70
2022-12-16T02:56:18.932Z,28.80
2022-12-16T02:57:18.929Z,30.60
2022-12-16T02:58:18.897Z,30.50
2022-12-16T02:59:18.880Z,31.10
2022-12-16T03:00:18.877Z,32.00
2022-12-16T03:01:18.960Z,29.90
2022-12-16T03:02:18.999Z,29.40
2022-12-16T03:03:18.891Z,31.10
2022-12-16T03:04:18.817Z,30.40
2022-12-16T03:05:18.816Z,28.60
2022-12-16T03:06:18.830Z,29.60
2022-12-16T03:07:18.804Z,30.40
2022-12-16T03:08:18.769Z,31.20
2022-12-16T03:09:18.759Z,31.90
2022-12-16T03:10:18.746Z,31.40
2022-12-16T03:11:18.758Z,32.50
2022-12-16T03:12:18.717Z,29.90
2022-12-16T03:13:18.709Z,30.50
2022-12-16T03:14:18.706Z,32.60
2022-12-16T03:15:18.691Z,32.10
2022-12-16T03:16:18.727Z,30.20
2022-12-16T03:17:18.687Z,30.60
2022-12-16T03:18:18.649Z,32.10
2022-12-16T03:19:18.661Z,32.50
2022-12-16T03:20:18.620Z,32.30
2022-12-16T03:21:18.627Z,31.50
2022-12-16T03:22:18.585Z,33.90
2022-12-16T03:23:18.581Z,33.00
2022-12-16T03:24:18.571Z,33.60
2022-12-16T03:25:18.558Z,33.00
2022-12-16T03:26:18.566Z,30.90
2022-12-16T03:27:18.538Z,32.90
2022-12-16T03:28:18.530Z,31.50
2022-12-16T03:29:18.526Z,33.80
2022-12-16T03:30:18.508Z,33.40
2022-12-16T03:31:18.561Z,32.70
2022-12-16T03:32:18.471Z,31.00
2022-12-16T03:33:18.468Z,32.80
2022-12-16T03:34:18.451Z,33.30
2022-12-16T03:35:18.443Z,31.00
2022-12-16T03:36:18.430Z,34.30
2022-12-16T03:37:18.419Z,34.70
2022-12-16T03:38:18.390Z,33.90
2022-12-16T03:39:18.402Z,34.40
2022-12-16T03:40:18.361Z,34.40
2022-12-16T03:41:18.376Z,34.40
2022-12-16T03:42:18.358Z,33.90
2022-12-16T03:43:18.329Z,33.70
2022-12-16T03:44:18.321Z,36.00
2022-12-16T03:45:18.340Z,34.20
2022-12-16T03:46:18.357Z,35.30
2022-12-16T03:47:23.328Z,35.70
2022-12-16T03:48:19.271Z,35.60
2022-12-16T03:49:18.270Z,34.70
2022-12-16T03:50:18.249Z,34.10
2022-12-16T04:03:42.154Z,28.00
2022-12-16T04:04:42.058Z,25.90
2022-12-16T04:05:42.063Z,31.60
2022-12-16T04:06:42.038Z,34.20
2022-12-16T04:07:42.029Z,35.10
2022-12-16T04:08:42.018Z,34.60
2022-12-16T04:09:42.007Z,36.20
2022-12-16T04:10:41.985Z,35.50
2022-12-16T04:11:41.985Z,32.90
2022-12-16T04:12:42.007Z,35.50
2022-12-16T04:13:41.947Z,35.40
2022-12-16T04:14:41.937Z,34.90
2022-12-16T04:15:42.003Z,32.30
2022-12-16T04:16:41.931Z,35.20
2022-12-16T04:17:41.918Z,35.50
2022-12-16T04:18:41.899Z,37.80
2022-12-16T04:19:41.876Z,35.90
2022-12-16T04:20:41.865Z,34.90
2022-12-16T04:21:41.873Z,34.20
2022-12-16T04:22:41.870Z,32.30
2022-12-16T04:23:41.826Z,35.20
2022-12-16T04:24:41.808Z,34.70
2022-12-16T04:25:41.806Z,32.80
2022-12-16T04:26:41.807Z,32.70
2022-12-16T04:27:41.778Z,31.70
2022-12-16T04:28:41.878Z,32.60
2022-12-16T04:29:41.768Z,33.00
2022-12-16T04:30:41.739Z,33.10
2022-12-16T04:31:41.809Z,34.10
2022-12-16T04:32:41.771Z,31.60
2022-12-16T04:33:41.707Z,33.80
2022-12-16T04:34:41.685Z,32.50
2022-12-16T04:35:41.667Z,31.90
2022-12-16T04:36:41.677Z,32.50
2022-12-16T04:37:41.679Z,33.40
2022-12-16T04:38:41.632Z,33.80
2022-12-16T04:39:41.629Z,33.00
2022-12-16T04:40:41.614Z,33.10
2022-12-16T04:41:41.608Z,35.60
2022-12-16T04:42:41.586Z,35.60
2022-12-16T04:43:41.587Z,33.90
2022-12-16T04:44:41.556Z,35.60
2022-12-16T04:45:41.559Z,34.90
2022-12-16T04:46:41.624Z,35.60
2022-12-16T04:47:41.548Z,35.90
2022-12-16T04:48:41.508Z,35.80
2022-12-16T04:49:41.508Z,35.20
2022-12-16T04:50:41.479Z,36.10
2022-12-16T04:51:41.488Z,35.20
2022-12-16T04:52:41.480Z,34.80
2022-12-16T04:53:41.458Z,34.70
2022-12-16T04:54:41.439Z,36.00
2022-12-16T04:55:41.418Z,35.10
2022-12-16T04:56:41.427Z,34.70
2022-12-16T04:57:41.422Z,36.70
2022-12-16T04:58:41.432Z,35.40
2022-12-16T04:59:41.377Z,36.90
2022-12-16T05:00:41.364Z,38.20
2022-12-16T05:01:41.474Z,37.00
2022-12-16T05:02:41.440Z,37.20
2022-12-16T05:03:41.396Z,37.50
2022-12-16T05:04:41.308Z,37.30
2022-12-16T05:05:41.307Z,38.40
2022-12-16T05:06:41.298Z,37.40
2022-12-16T05:07:41.285Z,37.70
2022-12-16T05:08:41.297Z,32.60
2022-12-16T05:09:41.258Z,36.20
2022-12-16T05:10:41.246Z,32.50
2022-12-16T05:11:41.237Z,35.30
2022-12-16T05:12:41.235Z,32.90
2022-12-16T05:13:41.200Z,33.80
2022-12-16T05:14:41.189Z,35.50
2022-12-16T05:15:41.229Z,33.90
2022-12-16T05:16:41.150Z,35.10
2022-12-16T05:17:41.207Z,32.50
2022-12-16T05:18:41.119Z,34.80
2022-12-16T05:19:41.127Z,35.80
2022-12-16T05:20:41.100Z,33.60
2022-12-16T05:21:41.108Z,35.10
2022-12-16T05:22:41.091Z,29.10
2022-12-16T05:23:41.101Z,34.90
2022-12-16T05:24:41.067Z,33.80
2022-12-16T05:25:41.051Z,34.20
2022-12-16T05:26:41.028Z,31.90
2022-12-16T05:27:41.041Z,33.00
2022-12-16T05:28:41.017Z,30.80
2022-12-16T05:29:40.999Z,32.70
2022-12-16T05:30:40.988Z,29.20
2022-12-16T05:31:41.031Z,32.00
2022-12-16T05:32:40.956Z,32.20
2022-12-16T05:33:40.947Z,29.70
2022-12-16T05:34:40.935Z,32.60
2022-12-16T05:35:40.917Z,30.90
2022-12-16T05:36:40.917Z,30.30
2022-12-16T05:37:40.921Z,30.40
2022-12-16T05:38:40.878Z,32.10
2022-12-16T05:39:40.878Z,32.20
2022-12-16T05:40:40.849Z,33.30
2022-12-16T05:41:40.849Z,32.10
2022-12-16T05:42:40.839Z,32.40
2022-12-16T05:43:40.827Z,32.40
2022-12-16T05:44:40.799Z,33.80
2022-12-16T05:45:40.888Z,34.70
2022-12-16T05:46:40.879Z,33.10
2022-12-16T05:47:40.787Z,34.70
2022-12-16T05:48:45.986Z,31.00
2022-12-16T05:49:41.749Z,32.10
2022-12-16T05:50:40.728Z,33.20
2022-12-16T05:51:40.719Z,34.50
2022-12-16T05:52:40.709Z,33.60
2022-12-16T05:53:40.708Z,33.50
2022-12-16T05:54:40.670Z,34.50
2022-12-16T05:55:40.669Z,34.90
2022-12-16T05:56:40.650Z,34.10
2022-12-16T05:57:40.648Z,31.00
2022-12-16T05:58:40.640Z,31.50
2022-12-16T05:59:40.626Z,29.90
2022-12-16T06:00:40.628Z,33.10
2022-12-16T06:01:40.709Z,32.20
2022-12-16T06:02:40.818Z,33.30
2022-12-16T06:03:40.690Z,29.50
2022-12-16T06:04:40.560Z,32.80
2022-12-16T06:05:40.538Z,33.30
2022-12-16T06:06:40.527Z,32.70
2022-12-16T06:07:40.520Z,35.00
2022-12-16T06:08:40.516Z,29.90
2022-12-16T06:09:40.500Z,32.90
2022-12-16T06:10:40.469Z,32.50
2022-12-16T06:11:40.470Z,33.70
2022-12-16T06:12:40.453Z,32.60
2022-12-16T06:13:49.130Z,30.00
2022-12-16T06:14:47.948Z,29.70
2022-12-16T06:15:40.420Z,31.10
2022-12-16T06:16:40.474Z,30.90
2022-12-16T06:17:47.902Z,30.40
2022-12-16T06:18:40.381Z,28.80
2022-12-16T06:19:40.363Z,30.10
2022-12-16T06:20:40.363Z,27.80
2022-12-16T06:21:40.349Z,26.30
2022-12-16T06:22:40.330Z,26.80
2022-12-16T06:23:40.339Z,29.40
2022-12-16T06:24:40.310Z,26.30
2022-12-16T06:25:40.313Z,29.70
2022-12-16T06:26:40.277Z,28.60
2022-12-16T06:27:40.281Z,28.60
2022-12-16T06:28:45.610Z,28.60
2022-12-16T06:29:41.273Z,27.90
2022-12-16T06:30:40.241Z,28.90
2022-12-16T06:31:40.284Z,28.40
2022-12-16T06:32:40.226Z,29.10
2022-12-16T06:33:40.210Z,30.10
2022-12-16T06:34:40.194Z,29.40
2022-12-16T06:35:40.205Z,30.10
2022-12-16T06:36:40.174Z,29.70
2022-12-16T06:37:40.150Z,29.60
2022-12-16T06:38:40.140Z,30.10
2022-12-16T06:39:40.131Z,29.30
2022-12-16T06:40:40.095Z,29.60
2022-12-16T06:41:40.101Z,29.30
2022-12-16T06:42:40.081Z,29.10
2022-12-16T06:43:40.107Z,30.00
2022-12-16T06:44:40.071Z,29.50
2022-12-16T06:45:40.060Z,28.60
2022-12-16T06:46:40.075Z,29.70
2022-12-16T06:47:40.018Z,29.50
2022-12-16T06:48:40.019Z,30.20
2022-12-16T06:49:39.993Z,29.50
2022-12-16T06:50:44.725Z,30.00
2022-12-16T06:51:40.971Z,29.70
2022-12-16T06:52:39.985Z,27.20
2022-12-16T06:53:39.941Z,27.90
2022-12-16T06:54:39.949Z,28.60
2022-12-16T06:55:39.920Z,30.10
2022-12-16T06:56:39.928Z,35.40
2022-12-16T06:57:39.910Z,38.10
2022-12-16T06:58:39.880Z,31.90
2022-12-16T06:59:39.870Z,29.40
2022-12-16T07:00:39.868Z,31.70
2022-12-16T07:01:39.989Z,32.00
2022-12-16T07:02:47.421Z,28.60
2022-12-16T07:03:48.531Z,30.30
2022-12-16T07:04:47.307Z,31.40
2022-12-16T07:05:47.296Z,30.30
2022-12-16T07:06:48.282Z,33.30
2022-12-16T07:07:47.281Z,29.70
2022-12-16T07:08:48.458Z,31.20
2022-12-16T07:09:47.237Z,29.00
2022-12-16T07:10:47.244Z,28.60
2022-12-16T07:11:48.221Z,30.50
2022-12-16T07:12:47.208Z,29.70
2022-12-16T07:13:47.209Z,28.70
2022-12-16T07:14:48.381Z,24.90
2022-12-16T07:15:39.663Z,25.10
2022-12-16T07:16:47.233Z,24.10
2022-12-16T07:17:39.648Z,24.40
2022-12-16T07:18:47.134Z,23.50
2022-12-16T07:19:48.333Z,24.80
2022-12-16T07:20:39.582Z,21.50
2022-12-16T07:21:47.113Z,23.20
2022-12-16T07:22:39.577Z,23.60
2022-12-16T07:23:39.633Z,23.50
2022-12-16T07:24:39.577Z,24.10
2022-12-16T07:25:39.563Z,20.90
2022-12-16T07:26:39.517Z,20.90
2022-12-16T07:27:39.516Z,22.10
2022-12-16T07:28:39.506Z,20.30
2022-12-16T07:29:39.509Z,20.30
2022-12-16T07:30:39.481Z,21.00
2022-12-16T07:31:39.549Z,18.50
2022-12-16T07:32:39.472Z,19.00
2022-12-16T07:33:39.435Z,19.60
2022-12-16T07:34:42.866Z,18.70
2022-12-16T07:35:40.430Z,19.80
2022-12-16T07:36:39.387Z,20.30
2022-12-16T07:37:39.385Z,21.50
2022-12-16T07:38:39.366Z,20.20
2022-12-16T07:39:39.417Z,19.40
2022-12-16T07:40:39.373Z,20.10
2022-12-16T07:41:39.437Z,19.20
2022-12-16T07:42:39.334Z,18.60
2022-12-16T07:43:39.308Z,19.00
2022-12-16T07:44:39.319Z,19.00
2022-12-16T07:45:44.905Z,18.30
2022-12-16T07:46:40.282Z,17.50
2022-12-16T07:47:39.256Z,21.50
2022-12-16T07:48:39.246Z,20.60
2022-12-16T07:49:39.235Z,19.70
2022-12-16T07:50:39.246Z,20.10
2022-12-16T07:51:39.207Z,18.00
2022-12-16T07:52:39.202Z,18.70
2022-12-16T07:53:39.539Z,17.20
2022-12-16T07:54:39.181Z,17.90
2022-12-16T07:55:39.178Z,18.80
2022-12-16T07:56:39.141Z,17.90
2022-12-16T07:57:39.128Z,17.80
2022-12-16T07:58:39.129Z,16.70
2022-12-16T07:59:39.107Z,16.80
2022-12-16T08:00:39.109Z,17.90
2022-12-16T08:01:39.166Z,18.50
2022-12-16T08:02:39.245Z,18.40
2022-12-16T08:03:39.103Z,16.30
2022-12-16T08:04:39.047Z,17.40
2022-12-16T08:05:39.040Z,17.10
2022-12-16T08:06:40.584Z,16.50
2022-12-16T08:07:39.008Z,16.70
2022-12-16T08:08:39.008Z,16.20
2022-12-16T08:09:38.980Z,17.20
2022-12-16T08:10:38.994Z,15.60
2022-12-16T08:11:38.954Z,16.90
2022-12-16T08:12:38.942Z,15.70
2022-12-16T08:13:39.635Z,16.20
2022-12-16T08:14:38.919Z,15.40
2022-12-16T08:15:38.919Z,16.00
2022-12-16T08:16:38.996Z,16.10
2022-12-16T08:17:38.879Z,14.80
2022-12-16T08:18:38.883Z,15.80
2022-12-16T08:19:38.859Z,14.90
2022-12-16T08:20:38.859Z,14.80
2022-12-16T08:21:38.829Z,13.70
2022-12-16T08:22:38.838Z,14.90
2022-12-16T08:23:38.801Z,14.80
2022-12-16T08:24:38.808Z,13.80
2022-12-16T08:25:38.790Z,13.60
2022-12-16T08:26:38.769Z,13.60
2022-12-16T08:27:38.766Z,12.90
2022-12-16T08:28:38.739Z,13.60
2022-12-16T08:29:46.056Z,13.90
2022-12-16T08:30:39.779Z,13.60
2022-12-16T08:31:38.729Z,13.40
2022-12-16T08:32:38.715Z,14.00
2022-12-16T08:33:38.729Z,12.00
2022-12-16T08:34:38.668Z,11.60
2022-12-16T08:35:38.659Z,11.90
2022-12-16T08:36:38.664Z,11.90
2022-12-16T08:37:38.639Z,10.80
2022-12-16T08:38:38.611Z,11.20
2022-12-16T08:39:38.599Z,11.70
2022-12-16T08:40:38.632Z,11.40
2022-12-16T08:41:38.584Z,12.50
2022-12-16T08:42:38.579Z,12.10
2022-12-16T08:43:38.560Z,11.60
2022-12-16T08:44:38.537Z,10.60
2022-12-16T08:45:38.605Z,11.20
2022-12-16T08:46:38.622Z,10.90
2022-12-16T08:47:38.509Z,9.50
2022-12-16T08:48:38.488Z,9.40
2022-12-16T08:49:38.480Z,9.70
2022-12-16T08:50:38.495Z,11.40
2022-12-16T08:51:38.486Z,10.70
2022-12-16T08:52:38.449Z,10.00
2022-12-16T08:53:38.428Z,10.00
2022-12-16T08:54:38.419Z,10.10
2022-12-16T08:55:38.400Z,8.80
2022-12-16T08:56:38.439Z,9.00
2022-12-16T08:57:38.379Z,9.80
2022-12-16T08:58:38.389Z,9.20
2022-12-16T08:59:38.384Z,9.90
2022-12-16T09:00:38.348Z,9.60
2022-12-16T09:01:38.597Z,9.50
2022-12-16T09:02:38.524Z,9.40
2022-12-16T09:03:38.635Z,8.90
2022-12-16T09:04:38.287Z,8.50
2022-12-16T09:05:38.282Z,8.20
2022-12-16T09:06:40.620Z,9.50
2022-12-16T09:07:38.248Z,9.10
2022-12-16T09:08:38.255Z,9.00
2022-12-16T09:09:38.249Z,8.50
2022-12-16T09:10:40.600Z,8.20
2022-12-16T09:11:38.218Z,8.10
2022-12-16T09:12:38.217Z,8.70
2022-12-16T09:13:38.227Z,8.40
2022-12-16T09:14:38.159Z,9.00
2022-12-16T09:15:38.194Z,8.90
2022-12-16T09:16:38.272Z,7.90
2022-12-16T09:17:38.137Z,7.70
2022-12-16T09:18:38.120Z,7.50
2022-12-16T09:19:38.089Z,7.30
2022-12-16T09:20:38.087Z,7.90
2022-12-16T09:21:38.113Z,7.40
2022-12-16T09:22:38.087Z,7.40
2022-12-16T09:23:38.048Z,7.70
2022-12-16T09:24:38.059Z,8.00
2022-12-16T09:25:38.029Z,8.00
2022-12-16T09:26:38.064Z,7.40
2022-12-16T09:27:38.009Z,7.40
2022-12-16T09:28:38.066Z,6.50
2022-12-16T09:29:41.965Z,6.60
2022-12-16T09:30:38.996Z,6.90
2022-12-16T09:31:38.081Z,6.70
2022-12-16T09:32:37.956Z,6.80
2022-12-16T09:33:37.920Z,7.00
2022-12-16T09:34:37.910Z,6.80
2022-12-16T09:35:37.913Z,7.30
2022-12-16T09:36:37.889Z,6.50
2022-12-16T09:37:37.870Z,7.50
2022-12-16T09:38:37.868Z,7.20
2022-12-16T09:39:37.867Z,7.70
2022-12-16T09:40:37.839Z,7.40
2022-12-16T09:41:42.909Z,8.10
2022-12-16T09:42:38.837Z,7.40
2022-12-16T09:43:37.807Z,7.10
2022-12-16T09:44:37.788Z,8.00
2022-12-16T09:45:37.793Z,8.00
2022-12-16T09:46:37.809Z,8.10
2022-12-16T09:47:37.775Z,8.40
2022-12-16T10:04:04.724Z,10.00
2022-12-16T10:05:04.589Z,9.20
2022-12-16T10:06:04.574Z,9.40
2022-12-16T10:07:04.576Z,9.60
2022-12-16T10:08:04.653Z,9.60
2022-12-16T10:09:04.547Z,9.90
2022-12-16T10:10:04.538Z,11.30
2022-12-16T10:11:04.532Z,11.20
2022-12-16T10:12:04.555Z,11.50
2022-12-16T10:13:04.505Z,11.30
2022-12-16T10:14:04.474Z,10.80
2022-12-16T10:15:04.465Z,10.80
2022-12-16T10:16:04.714Z,10.50
2022-12-16T10:17:04.465Z,10.40
2022-12-16T10:18:04.491Z,11.20
2022-12-16T10:19:04.434Z,12.00
2022-12-16T10:20:09.091Z,13.50
2022-12-16T10:21:05.422Z,12.30
2022-12-16T10:22:04.376Z,12.70
2022-12-16T10:23:04.383Z,12.10
2022-12-16T10:24:04.366Z,12.40
2022-12-16T10:25:04.358Z,12.90
2022-12-16T10:26:04.326Z,12.80
2022-12-16T10:27:04.328Z,13.40
2022-12-16T10:28:04.327Z,14.10
2022-12-16T10:29:04.303Z,13.70
2022-12-16T10:30:04.286Z,13.70
2022-12-16T10:31:04.341Z,13.00
2022-12-16T10:32:04.266Z,12.40
2022-12-16T10:33:04.285Z,13.20
2022-12-16T10:34:04.246Z,13.30
2022-12-16T10:35:04.226Z,14.00
2022-12-16T10:36:04.206Z,14.20
2022-12-16T10:37:09.145Z,15.20
2022-12-16T10:38:05.215Z,14.10
2022-12-16T10:39:04.175Z,14.40
2022-12-16T10:40:04.161Z,15.20
2022-12-16T10:41:04.153Z,15.20
2022-12-16T10:42:05.227Z,14.50
2022-12-16T10:43:04.135Z,14.50
2022-12-16T10:44:04.116Z,13.70
2022-12-16T10:45:04.085Z,15.10
2022-12-16T10:46:04.141Z,16.30
2022-12-16T10:47:04.075Z,15.00
2022-12-16T10:48:04.085Z,14.30
2022-12-16T10:49:04.118Z,15.50
2022-12-16T10:50:04.120Z,15.40
2022-12-16T10:51:04.017Z,14.50
2022-12-16T10:52:08.337Z,15.00
2022-12-16T10:53:05.014Z,14.50
2022-12-16T10:54:03.996Z,15.80
2022-12-16T10:55:03.985Z,15.00
2022-12-16T10:56:03.954Z,14.90
2022-12-16T10:57:03.949Z,14.10
2022-12-16T10:58:03.925Z,14.90
2022-12-16T10:59:03.931Z,15.00
2022-12-16T11:00:03.912Z,16.30
2022-12-16T11:01:03.885Z,15.10
2022-12-16T11:02:03.999Z,15.60
2022-12-16T11:03:04.108Z,15.40
2022-12-16T11:04:03.928Z,15.10
2022-12-16T11:05:03.855Z,15.10
2022-12-16T11:06:03.825Z,15.10
2022-12-16T11:07:03.837Z,14.60
2022-12-16T11:08:03.837Z,14.80
2022-12-16T11:09:03.816Z,15.70
2022-12-16T11:10:03.793Z,13.90
2022-12-16T11:11:03.766Z,14.70
2022-12-16T11:12:03.776Z,13.60
2022-12-16T11:13:03.775Z,14.50
2022-12-16T11:14:03.767Z,15.20
2022-12-16T11:15:28.132Z,14.00
2022-12-16T11:16:04.821Z,16.50
2022-12-16T11:17:03.696Z,15.80
2022-12-16T11:18:03.863Z,15.60
2022-12-16T11:19:04.456Z,15.70
2022-12-16T11:20:04.687Z,16.80
2022-12-16T11:21:06.880Z,16.80
2022-12-16T11:22:04.858Z,16.80
2022-12-16T11:23:03.617Z,17.70
2022-12-16T11:24:03.615Z,18.30
2022-12-16T11:25:03.597Z,16.40
2022-12-16T11:26:03.576Z,14.60
2022-12-16T11:27:03.599Z,16.70
2022-12-16T11:28:03.546Z,15.60
2022-12-16T11:29:03.554Z,15.70
2022-12-16T11:30:03.548Z,15.40
2022-12-16T11:31:03.576Z,15.40
2022-12-16T11:32:03.512Z,15.80
2022-12-16T11:33:03.506Z,15.00
2022-12-16T11:34:03.491Z,16.40
2022-12-16T11:35:03.467Z,16.60
2022-12-16T11:36:03.478Z,15.60
2022-12-16T11:37:03.462Z,16.70
2022-12-16T11:38:03.448Z,16.80
2022-12-16T11:39:03.439Z,16.60
2022-12-16T11:40:03.409Z,16.40
2022-12-16T11:41:03.409Z,16.10
2022-12-16T11:42:03.396Z,15.30
2022-12-16T11:43:10.506Z,16.80
2022-12-16T11:44:04.356Z,15.00
2022-12-16T11:45:03.433Z,16.50
2022-12-16T11:46:04.178Z,15.80
2022-12-16T11:47:03.392Z,15.70
2022-12-16T11:48:03.297Z,15.80
2022-12-16T11:49:03.312Z,15.30
2022-12-16T11:50:03.278Z,15.70
2022-12-16T11:51:03.337Z,16.40
2022-12-16T11:52:21.262Z,15.90
2022-12-16T11:53:04.257Z,16.80
2022-12-16T11:54:03.873Z,16.90
2022-12-16T11:55:03.605Z,16.60
2022-12-16T11:56:07.685Z,16.30
2022-12-16T11:57:05.152Z,16.20
2022-12-16T11:58:03.234Z,16.50
2022-12-16T11:59:03.175Z,17.20
2022-12-16T12:00:03.172Z,16.70
2022-12-16T12:01:03.168Z,17.20
2022-12-16T12:02:03.181Z,17.00
2022-12-16T12:03:03.209Z,17.20
2022-12-16T12:04:03.281Z,18.00
2022-12-16T12:05:03.096Z,17.50
2022-12-16T12:06:03.102Z,17.50
2022-12-16T12:07:03.077Z,17.80
2022-12-16T12:08:03.057Z,17.60
2022-12-16T12:09:03.051Z,18.80
2022-12-16T12:10:03.043Z,18.00
2022-12-16T12:11:03.017Z,18.80
2022-12-16T12:12:03.018Z,19.80
2022-12-16T12:13:03.080Z,18.40
2022-12-16T12:14:02.990Z,18.20
2022-12-16T12:15:02.997Z,18.70
2022-12-16T12:16:03.065Z,19.50
2022-12-16T12:17:02.937Z,19.80
2022-12-16T12:18:02.936Z,19.70
2022-12-16T12:19:03.599Z,19.20
2022-12-16T12:20:03.016Z,19.20
2022-12-16T12:21:02.909Z,19.10
2022-12-16T12:22:03.629Z,18.10
2022-12-16T12:23:02.888Z,19.20
2022-12-16T12:24:02.868Z,19.20
2022-12-16T12:25:02.838Z,18.10
2022-12-16T12:26:02.849Z,20.00
2022-12-16T12:27:02.828Z,19.20
2022-12-16T12:28:02.983Z,20.80
2022-12-16T12:29:03.014Z,19.00
2022-12-16T12:30:03.097Z,19.20
2022-12-16T12:31:02.897Z,19.90
2022-12-16T12:32:03.029Z,19.00
2022-12-16T12:33:02.738Z,19.20
2022-12-16T12:34:02.730Z,19.30
2022-12-16T12:35:02.731Z,19.30
2022-12-16T12:36:02.708Z,18.90
2022-12-16T12:37:10.196Z,20.20
2022-12-16T12:38:10.173Z,20.40
2022-12-16T12:40:18.958Z,19.70
2022-12-16T12:41:18.946Z,20.00
2022-12-16T12:42:26.434Z,19.20
2022-12-16T12:43:26.652Z,20.70
2022-12-16T12:44:18.900Z,20.60
2022-12-16T12:45:18.910Z,19.30
2022-12-16T12:46:27.632Z,20.10
2022-12-16T12:47:26.371Z,20.60
2022-12-16T12:48:18.851Z,20.90
2022-12-16T12:49:18.840Z,20.20
2022-12-16T12:50:18.830Z,21.10
2022-12-16T12:51:18.820Z,21.50
2022-12-16T12:52:18.794Z,20.30
2022-12-16T12:53:18.792Z,20.70
2022-12-16T12:54:18.770Z,20.40
2022-12-16T12:55:26.292Z,19.70
2022-12-16T12:56:18.766Z,20.30
2022-12-16T12:57:18.741Z,20.70
2022-12-16T12:58:18.738Z,20.70
2022-12-16T12:59:18.734Z,21.50
2022-12-16T13:00:18.708Z,21.30
2022-12-16T13:01:18.838Z,21.90
2022-12-16T13:02:18.887Z,22.20
2022-12-16T13:03:18.826Z,21.10
2022-12-16T13:04:18.669Z,21.20
2022-12-16T13:05:24.136Z,21.40
2022-12-16T13:06:19.660Z,22.00
2022-12-16T13:07:18.618Z,22.10
2022-12-16T13:08:18.609Z,21.30
2022-12-16T13:09:18.595Z,21.60
2022-12-16T13:10:18.591Z,21.90
2022-12-16T13:11:18.570Z,22.00
2022-12-16T13:12:18.578Z,22.00
2022-12-16T13:13:18.552Z,19.90
2022-12-16T13:14:18.519Z,22.30
2022-12-16T13:15:18.529Z,22.00
2022-12-16T13:16:18.552Z,20.90
2022-12-16T13:17:23.670Z,22.30
2022-12-16T13:18:19.489Z,22.30
2022-12-16T13:19:18.466Z,20.80
2022-12-16T13:20:18.472Z,22.70
2022-12-16T13:21:18.472Z,22.60
2022-12-16T13:22:18.529Z,21.10
2022-12-16T13:23:18.409Z,22.80